logo
Search for airport 
image banner adimage banner adimage banner ad
image banner ad

UWUU - Ufa

Located in Ufa, Russian Federation

ICAO - UWUU, IATA - UFA

Data provided by Airmate  

General information

Coordinates: N54°33'28" E55°52'26"
Elevation is 450 feet MSL.
 
View others Airports in Republic of Bashkortostan

Operational data

Special qualification required
Current time UTC:
Current local time:
Weather
METAR: UWUU 232100Z VRB01MPS CAVOK 15/13 Q1007 R32L/1///54 NOSIG
TAF: TAF UWUU 232000Z 2321/2421 03003G08MPS 6000 SCT040 TX23/2409Z TN13/2401Z TEMPO 2321/2406 VRB01MPS 0200 FG BKN003 TEMPO 2406/2421 VRB01MPS -SHRA BKN016CB
View NOTAMs / SUP AIP / TFR affecting this airport [VIEW]
Communications frequencies: [VIEW]

Runways:

RWY identifierQFULength (ft)Width (ft)SurfaceLDA (ft)
14L151°8255161CON
32R331°8255161CON
14R151°12339148CON
32L331°12339148CON

Airport contact information

Address: Ufa Russian Federation

Satellite view of UWUU